createdAt,value
2023-05-22T00:01:09.174Z,23.41
2023-05-22T00:03:42.050Z,23.41
2023-05-22T00:06:27.815Z,23.40
2023-05-22T00:08:58.060Z,23.40
2023-05-22T00:11:28.364Z,23.36
2023-05-22T00:13:58.647Z,23.32
2023-05-22T00:16:29.186Z,23.28
2023-05-22T00:19:05.453Z,23.26
2023-05-22T00:21:37.751Z,23.24
2023-05-22T00:24:08.626Z,23.23
2023-05-22T00:26:38.945Z,23.21
2023-05-22T00:29:09.682Z,23.22
2023-05-22T00:31:40.210Z,23.19
2023-05-22T00:34:13.046Z,23.18
2023-05-22T00:36:44.688Z,23.17
2023-05-22T00:39:14.949Z,23.12
2023-05-22T00:41:45.248Z,23.12
2023-05-22T00:44:15.528Z,23.10
2023-05-22T00:46:46.232Z,23.05
2023-05-22T00:49:19.118Z,23.00
2023-05-22T00:51:50.244Z,22.98
2023-05-22T00:54:20.523Z,22.94
2023-05-22T00:56:51.280Z,22.92
2023-05-22T00:59:21.962Z,22.87
2023-05-22T01:01:52.641Z,22.83
2023-05-22T01:04:25.922Z,22.79
2023-05-22T01:06:56.662Z,22.73
2023-05-22T01:09:27.060Z,22.70
2023-05-22T01:12:03.269Z,22.67
2023-05-22T01:14:43.615Z,22.63
2023-05-22T01:17:24.973Z,22.60
2023-05-22T01:20:10.460Z,22.57
2023-05-22T01:23:13.517Z,22.55
2023-05-22T01:26:15.858Z,22.53
2023-05-22T01:28:59.363Z,22.39
2023-05-22T01:31:48.343Z,22.30
2023-05-22T01:34:20.449Z,22.22
2023-05-22T01:36:53.883Z,22.17
2023-05-22T01:39:25.792Z,22.11
2023-05-22T01:41:56.481Z,22.10
2023-05-22T01:44:26.680Z,22.09
2023-05-22T01:47:05.417Z,22.04
2023-05-22T01:49:36.249Z,22.03
2023-05-22T01:52:13.491Z,21.95
2023-05-22T01:54:52.944Z,21.87
2023-05-22T01:57:29.277Z,21.74
2023-05-22T02:00:07.535Z,21.65
2023-05-22T02:02:54.245Z,21.61
2023-05-22T02:05:28.010Z,21.60
2023-05-22T02:08:02.119Z,21.61
2023-05-22T02:10:34.552Z,21.62
2023-05-22T02:13:05.236Z,21.58
2023-05-22T02:15:36.426Z,21.59
2023-05-22T02:18:14.047Z,21.54
2023-05-22T02:20:45.754Z,21.50
2023-05-22T02:23:16.078Z,21.44
2023-05-22T02:25:46.175Z,21.39
2023-05-22T02:28:16.316Z,21.36
2023-05-22T02:30:48.959Z,21.38
2023-05-22T02:33:21.894Z,21.38
2023-05-22T02:35:53.705Z,21.35
2023-05-22T02:38:23.819Z,21.35
2023-05-22T02:40:54.295Z,21.32
2023-05-22T02:43:24.864Z,21.28
2023-05-22T02:45:55.325Z,21.28
2023-05-22T02:48:29.600Z,21.28
2023-05-22T02:50:59.804Z,21.29
2023-05-22T02:53:29.952Z,21.27
2023-05-22T02:56:01.753Z,21.25
2023-05-22T02:58:31.998Z,21.26
2023-05-22T03:01:03.626Z,21.24
2023-05-22T03:03:36.646Z,21.23
2023-05-22T03:06:09.117Z,21.19
2023-05-22T03:08:43.746Z,21.14
2023-05-22T03:11:14.378Z,21.09
2023-05-22T03:13:44.582Z,21.05
2023-05-22T03:16:14.925Z,21.02
2023-05-22T03:18:50.982Z,20.99
2023-05-22T03:21:21.536Z,20.98
2023-05-22T03:23:51.888Z,20.95
2023-05-22T03:26:22.260Z,20.91
2023-05-22T03:28:53.044Z,20.86
2023-05-22T03:31:24.126Z,20.83
2023-05-22T03:34:17.736Z,20.75
2023-05-22T03:36:51.442Z,20.70
2023-05-22T03:39:21.688Z,20.68
2023-05-22T03:41:59.018Z,20.67
2023-05-22T03:44:34.132Z,20.69
2023-05-22T03:47:13.398Z,20.68
2023-05-22T03:49:46.378Z,20.70
2023-05-22T03:52:16.697Z,20.72
2023-05-22T03:54:46.816Z,20.75
2023-05-22T03:57:20.216Z,20.73
2023-05-22T03:59:50.388Z,20.75
2023-05-22T04:02:20.659Z,20.77
2023-05-22T04:04:53.712Z,20.76
2023-05-22T04:07:24.042Z,20.77
2023-05-22T04:09:54.215Z,20.80
2023-05-22T04:12:24.397Z,20.83
2023-05-22T04:14:54.645Z,20.90
2023-05-22T04:17:24.912Z,21.01
2023-05-22T04:19:58.400Z,21.16
2023-05-22T04:22:31.074Z,21.27
2023-05-22T04:25:03.618Z,21.35
2023-05-22T04:27:34.694Z,21.49
2023-05-22T04:30:10.695Z,21.67
2023-05-22T04:32:45.701Z,21.88
2023-05-22T04:35:20.928Z,22.03
2023-05-22T04:37:51.375Z,22.10
2023-05-22T04:40:21.958Z,22.21
2023-05-22T04:42:54.552Z,22.35
2023-05-22T04:45:30.604Z,22.48
2023-05-22T04:48:08.287Z,22.49
2023-05-22T04:50:46.567Z,22.44
2023-05-22T04:53:17.264Z,22.45
2023-05-22T04:55:50.098Z,22.60
2023-05-22T04:58:24.121Z,22.63
2023-05-22T05:00:54.366Z,22.64
2023-05-22T05:03:25.874Z,22.73
2023-05-22T05:06:02.086Z,22.78
2023-05-22T05:08:35.509Z,22.77
2023-05-22T05:11:06.361Z,22.83
2023-05-22T05:13:36.662Z,22.88
2023-05-22T05:16:07.149Z,22.93
2023-05-22T05:18:42.619Z,23.01
2023-05-22T05:21:17.580Z,23.03
2023-05-22T05:23:52.279Z,23.02
2023-05-22T05:26:24.125Z,23.05
2023-05-22T05:29:02.427Z,23.12
2023-05-22T05:31:49.387Z,23.22
2023-05-22T05:34:50.370Z,23.29
2023-05-22T05:37:38.611Z,23.37
2023-05-22T05:40:13.231Z,23.34
2023-05-22T05:42:53.061Z,23.31
2023-05-22T05:45:30.815Z,23.32
2023-05-22T05:48:30.462Z,23.36
2023-05-22T05:51:04.682Z,23.43
2023-05-22T05:53:43.890Z,23.59
2023-05-22T05:56:15.232Z,23.71
2023-05-22T05:58:47.689Z,23.92
2023-05-22T06:01:47.686Z,24.24
2023-05-22T06:04:24.672Z,24.47
2023-05-22T06:06:56.803Z,24.75
2023-05-22T06:09:44.017Z,24.93
2023-05-22T06:12:21.089Z,25.02
2023-05-22T06:14:52.436Z,25.13
2023-05-22T06:17:23.906Z,25.22
2023-05-22T06:20:09.445Z,25.12
2023-05-22T06:22:40.895Z,25.20
2023-05-22T06:25:14.978Z,25.29
2023-05-22T06:27:46.677Z,25.42
2023-05-22T06:30:31.932Z,25.48
2023-05-22T06:33:11.836Z,25.69
2023-05-22T06:35:43.879Z,25.72
2023-05-22T06:38:15.041Z,25.66
2023-05-22T06:40:49.404Z,25.73
2023-05-22T06:43:26.165Z,25.65
2023-05-22T06:46:05.688Z,25.51
2023-05-22T06:48:46.828Z,25.60
2023-05-22T06:51:25.828Z,25.79
2023-05-22T06:54:07.125Z,26.12
2023-05-22T06:56:46.330Z,26.33
2023-05-22T06:59:20.539Z,26.40
2023-05-22T07:02:13.843Z,26.47
2023-05-22T07:05:10.699Z,26.67
2023-05-22T07:07:52.714Z,26.89
2023-05-22T07:10:25.303Z,27.13
2023-05-22T07:12:58.348Z,27.24
2023-05-22T07:15:29.329Z,27.49
2023-05-22T07:18:02.074Z,27.73
2023-05-22T07:20:32.953Z,27.85
2023-05-22T07:23:13.562Z,28.19
2023-05-22T07:25:45.239Z,28.57
2023-05-22T07:28:20.124Z,28.72
2023-05-22T07:30:59.577Z,28.71
2023-05-22T07:33:32.165Z,28.57
2023-05-22T07:36:06.902Z,28.47
2023-05-22T07:38:37.946Z,28.60
2023-05-22T07:41:08.400Z,28.59
2023-05-22T07:43:44.163Z,28.51
2023-05-22T07:46:18.426Z,28.57
2023-05-22T07:48:59.749Z,28.69
2023-05-22T07:51:31.069Z,28.76
2023-05-22T07:54:01.284Z,28.94
2023-05-22T07:56:32.682Z,29.24
2023-05-22T07:59:05.837Z,29.50
2023-05-22T08:01:37.687Z,29.82
2023-05-22T08:04:08.655Z,30.07
2023-05-22T08:06:42.794Z,30.29
2023-05-22T08:09:13.233Z,30.47
2023-05-22T08:11:43.612Z,30.69
2023-05-22T08:14:17.887Z,30.79
2023-05-22T08:16:48.277Z,30.85
2023-05-22T08:19:18.784Z,30.76
2023-05-22T08:21:48.992Z,30.79
2023-05-22T08:24:19.270Z,30.92
2023-05-22T08:26:49.588Z,30.84
2023-05-22T08:29:22.351Z,30.85
2023-05-22T08:31:52.570Z,31.03
2023-05-22T08:34:22.903Z,31.13
2023-05-22T08:36:53.093Z,31.25
2023-05-22T08:39:23.287Z,31.44
2023-05-22T08:41:53.641Z,31.36
2023-05-22T08:44:26.839Z,30.98
2023-05-22T08:46:59.952Z,30.64
2023-05-22T08:49:30.543Z,30.51
2023-05-22T08:52:15.241Z,30.65
2023-05-22T08:54:48.804Z,30.94
2023-05-22T08:57:19.364Z,31.02
2023-05-22T08:59:53.410Z,31.13
2023-05-22T09:02:24.769Z,31.27
2023-05-22T09:05:02.393Z,31.30
2023-05-22T09:07:33.011Z,31.59
2023-05-22T09:10:05.751Z,31.87
2023-05-22T09:12:36.389Z,32.05
2023-05-22T09:15:13.866Z,32.17
2023-05-22T09:17:44.258Z,31.82
2023-05-22T09:20:16.444Z,31.37
2023-05-22T09:22:46.925Z,30.95
2023-05-22T09:25:21.858Z,30.89
2023-05-22T09:27:52.299Z,31.32
2023-05-22T09:30:25.041Z,31.68
2023-05-22T09:32:57.426Z,31.91
2023-05-22T09:35:30.057Z,32.10
2023-05-22T09:38:01.468Z,32.20
2023-05-22T09:40:35.275Z,32.75
2023-05-22T09:43:10.034Z,32.79
2023-05-22T09:45:43.198Z,32.27
2023-05-22T09:48:13.701Z,31.77
2023-05-22T09:50:44.071Z,31.37
2023-05-22T09:53:14.661Z,31.15
2023-05-22T09:55:45.038Z,30.93
2023-05-22T09:58:19.253Z,30.81
2023-05-22T10:00:55.898Z,30.72
2023-05-22T10:03:27.669Z,30.65
2023-05-22T10:05:59.152Z,30.74
2023-05-22T10:08:32.239Z,31.24
2023-05-22T10:11:04.661Z,31.73
2023-05-22T10:13:37.172Z,32.18
2023-05-22T10:16:12.311Z,32.71
2023-05-22T10:18:43.701Z,33.04
2023-05-22T10:21:15.113Z,33.03
2023-05-22T10:23:45.702Z,32.59
2023-05-22T10:26:16.125Z,31.85
2023-05-22T10:29:14.261Z,31.44
2023-05-22T10:31:54.549Z,31.73
2023-05-22T10:34:32.423Z,31.97
2023-05-22T10:37:20.920Z,32.36
2023-05-22T10:40:05.041Z,32.99
2023-05-22T10:42:35.523Z,33.07
2023-05-22T10:45:07.468Z,32.95
2023-05-22T10:47:44.882Z,33.29
2023-05-22T10:50:30.276Z,33.43
2023-05-22T10:53:23.131Z,33.26
2023-05-22T10:55:54.322Z,32.74
2023-05-22T10:58:30.098Z,32.48
2023-05-22T11:01:16.905Z,32.92
2023-05-22T11:04:05.369Z,33.59
2023-05-22T11:06:41.358Z,33.54
2023-05-22T11:09:22.517Z,33.98
2023-05-22T11:12:28.901Z,34.54
2023-05-22T11:15:08.127Z,34.65
2023-05-22T11:17:50.435Z,34.15
2023-05-22T11:20:25.907Z,33.97
2023-05-22T11:23:02.066Z,34.14
2023-05-22T11:25:32.616Z,34.56
2023-05-22T11:28:06.011Z,34.51
2023-05-22T11:30:38.765Z,34.77
2023-05-22T11:33:09.161Z,34.94
2023-05-22T11:35:44.816Z,34.64
2023-05-22T11:38:15.667Z,34.63
2023-05-22T11:40:45.811Z,34.90
2023-05-22T11:43:15.977Z,34.78
2023-05-22T11:45:46.234Z,34.58
2023-05-22T11:48:16.411Z,34.65
2023-05-22T11:50:50.459Z,34.80
2023-05-22T11:53:22.123Z,35.30
2023-05-22T11:55:52.289Z,35.51
2023-05-22T11:58:25.397Z,35.53
2023-05-22T12:00:58.516Z,35.82
2023-05-22T12:03:31.866Z,35.99
2023-05-22T12:06:05.078Z,36.05
2023-05-22T12:08:35.425Z,35.75
2023-05-22T12:11:08.568Z,35.88
2023-05-22T12:13:41.021Z,35.97
2023-05-22T12:16:25.864Z,36.38
2023-05-22T12:18:57.105Z,36.28
2023-05-22T12:21:32.602Z,35.84
2023-05-22T12:24:07.090Z,35.98
2023-05-22T12:26:40.513Z,36.26
2023-05-22T12:29:11.649Z,36.66
2023-05-22T12:31:41.821Z,36.97
2023-05-22T12:34:12.370Z,37.03
2023-05-22T12:36:50.714Z,36.59
2023-05-22T12:39:23.718Z,36.49
2023-05-22T12:41:53.846Z,36.70
2023-05-22T12:44:24.085Z,37.00
2023-05-22T12:46:55.671Z,37.60
2023-05-22T12:49:28.590Z,37.84
2023-05-22T12:52:05.233Z,37.82
2023-05-22T12:54:35.341Z,37.91
2023-05-22T12:57:08.145Z,37.90
2023-05-22T12:59:43.912Z,37.74
2023-05-22T13:02:14.122Z,37.66
2023-05-22T13:04:44.896Z,37.69
2023-05-22T13:07:17.933Z,38.09
2023-05-22T13:10:02.482Z,38.50
2023-05-22T13:12:38.128Z,38.56
2023-05-22T13:15:09.686Z,37.61
2023-05-22T13:17:44.516Z,36.73
2023-05-22T13:20:16.290Z,35.76
2023-05-22T13:22:52.167Z,34.99
2023-05-22T13:25:24.003Z,34.09
2023-05-22T13:27:58.916Z,33.32
2023-05-22T13:30:41.979Z,32.96
2023-05-22T13:33:25.053Z,32.58
2023-05-22T13:36:06.389Z,32.12
2023-05-22T13:38:42.256Z,31.74
2023-05-22T13:41:12.728Z,31.44
2023-05-22T13:43:48.848Z,31.29
2023-05-22T13:46:21.218Z,31.25
2023-05-22T13:48:51.519Z,31.26
2023-05-22T13:51:23.709Z,31.28
2023-05-22T13:54:01.910Z,31.05
2023-05-22T13:56:35.540Z,30.85
2023-05-22T13:59:09.388Z,30.69
2023-05-22T14:01:39.840Z,30.53
2023-05-22T14:04:13.774Z,30.42
2023-05-22T14:06:47.907Z,30.17
2023-05-22T14:09:24.092Z,30.06
2023-05-22T14:11:57.940Z,30.08
2023-05-22T14:14:28.422Z,30.01
2023-05-22T14:16:59.013Z,29.99
2023-05-22T14:19:30.021Z,30.00
2023-05-22T14:22:00.682Z,29.87
2023-05-22T14:24:33.875Z,29.75
2023-05-22T14:27:04.095Z,29.69
2023-05-22T14:29:34.532Z,29.78
2023-05-22T14:32:09.154Z,29.96
2023-05-22T14:34:57.519Z,29.99
2023-05-22T14:37:27.966Z,29.95
2023-05-22T14:43:23.379Z,29.83
2023-05-22T14:45:53.907Z,29.77
2023-05-22T14:48:33.890Z,29.70
2023-05-22T14:51:16.340Z,29.56
2023-05-22T14:54:05.025Z,29.51
2023-05-22T14:56:37.801Z,29.45
2023-05-22T14:59:11.803Z,29.51
2023-05-22T15:01:50.201Z,29.63
2023-05-22T15:04:20.988Z,29.73
2023-05-22T15:06:54.020Z,29.73
2023-05-22T15:09:26.275Z,29.63
2023-05-22T15:11:59.164Z,29.46
2023-05-22T15:14:32.339Z,29.43
2023-05-22T15:17:05.347Z,29.37
2023-05-22T15:19:35.817Z,29.30
2023-05-22T15:22:18.738Z,29.17
2023-05-22T15:24:50.287Z,29.28
2023-05-22T15:27:23.064Z,29.35
2023-05-22T15:29:53.338Z,29.17
2023-05-22T15:32:23.979Z,29.08
2023-05-22T15:34:54.646Z,29.11
2023-05-22T15:37:24.920Z,29.10
2023-05-22T15:39:56.595Z,29.16
2023-05-22T15:42:29.370Z,29.16
2023-05-22T15:45:01.357Z,29.11
2023-05-22T15:47:32.078Z,29.07
2023-05-22T15:50:02.236Z,29.04
2023-05-22T15:52:32.564Z,29.04
2023-05-22T15:55:25.463Z,29.06
2023-05-22T15:57:58.553Z,29.01
2023-05-22T16:00:30.204Z,28.87
2023-05-22T16:03:00.454Z,28.78
2023-05-22T16:05:33.073Z,28.82
2023-05-22T16:08:03.269Z,28.81
2023-05-22T16:10:33.591Z,28.69
2023-05-22T16:13:07.988Z,28.59
2023-05-22T16:15:39.942Z,28.59
2023-05-22T16:18:11.804Z,28.55
2023-05-22T16:20:41.989Z,28.54
2023-05-22T16:23:12.141Z,28.58
2023-05-22T16:25:42.484Z,28.60
2023-05-22T16:28:15.282Z,28.61
2023-05-22T16:30:45.579Z,28.62
2023-05-22T16:33:15.843Z,28.65
2023-05-22T16:35:47.378Z,28.57
2023-05-22T16:38:17.651Z,28.50
2023-05-22T16:40:47.861Z,28.45
2023-05-22T16:43:20.817Z,28.35
2023-05-22T16:45:59.996Z,28.24
2023-05-22T16:48:44.919Z,28.14
2023-05-22T16:51:15.372Z,28.05
2023-05-22T16:53:49.081Z,27.99
2023-05-22T16:56:20.907Z,27.94
2023-05-22T16:58:53.719Z,27.99
2023-05-22T17:01:24.463Z,28.04
2023-05-22T17:03:57.259Z,27.99
2023-05-22T17:06:31.620Z,27.93
2023-05-22T17:09:02.416Z,27.84
2023-05-22T17:11:33.189Z,27.84
2023-05-22T17:14:09.692Z,27.88
2023-05-22T17:16:44.528Z,27.94
2023-05-22T17:19:17.872Z,27.90
2023-05-22T17:21:51.271Z,27.91
2023-05-22T17:24:21.672Z,27.87
2023-05-22T17:26:51.957Z,27.80
2023-05-22T17:29:28.129Z,27.70
2023-05-22T17:32:15.446Z,27.65
2023-05-22T17:34:46.021Z,27.61
2023-05-22T17:37:28.133Z,27.62
2023-05-22T17:40:06.167Z,27.67
2023-05-22T17:42:48.309Z,27.66
2023-05-22T17:45:22.570Z,27.57
2023-05-22T17:47:55.344Z,27.56
2023-05-22T17:50:34.625Z,27.57
2023-05-22T17:53:05.242Z,27.55
2023-05-22T17:55:38.418Z,27.42
2023-05-22T17:58:15.637Z,27.32
2023-05-22T18:00:52.297Z,27.18
2023-05-22T18:03:26.597Z,27.13
2023-05-22T18:06:02.966Z,27.06
2023-05-22T18:08:35.755Z,27.04
2023-05-22T18:11:08.888Z,27.01
2023-05-22T18:13:39.000Z,26.99
2023-05-22T18:16:12.117Z,26.95
2023-05-22T18:18:42.255Z,26.86
2023-05-22T18:21:12.667Z,26.83
2023-05-22T18:23:42.753Z,26.89
2023-05-22T18:26:15.300Z,26.84
2023-05-22T18:28:48.447Z,26.84
2023-05-22T18:31:23.506Z,26.73
2023-05-22T18:33:53.920Z,26.62
2023-05-22T18:36:24.755Z,26.60
2023-05-22T18:38:56.705Z,26.59
2023-05-22T18:41:27.509Z,26.60
2023-05-22T18:43:58.704Z,26.54
2023-05-22T18:46:34.305Z,26.48
2023-05-22T18:49:04.509Z,26.42
2023-05-22T18:51:37.310Z,26.34
2023-05-22T18:54:07.747Z,26.29
2023-05-22T18:56:39.039Z,26.27
2023-05-22T18:59:09.580Z,26.22
2023-05-22T19:01:42.492Z,26.12
2023-05-22T19:07:16.122Z,26.08
2023-05-22T19:09:46.503Z,26.04
2023-05-22T19:12:16.730Z,25.99
2023-05-22T19:14:48.482Z,25.99
2023-05-22T19:17:22.844Z,25.91
2023-05-22T19:19:53.148Z,25.87
2023-05-22T19:22:24.555Z,25.79
2023-05-22T19:24:54.950Z,25.68
2023-05-22T19:27:25.463Z,25.63
2023-05-22T19:29:55.728Z,25.61
2023-05-22T19:32:28.625Z,25.58
2023-05-22T19:34:59.018Z,25.55
2023-05-22T19:37:36.775Z,25.50
2023-05-22T19:40:11.409Z,25.47
2023-05-22T19:42:41.818Z,25.45
2023-05-22T19:45:21.262Z,25.41
2023-05-22T19:47:58.866Z,25.33
2023-05-22T19:50:32.556Z,25.33
2023-05-22T19:53:04.811Z,25.28
2023-05-22T19:55:34.999Z,25.21
2023-05-22T19:58:05.144Z,25.16
2023-05-22T20:00:37.229Z,25.11
2023-05-22T20:03:11.955Z,25.07
2023-05-22T20:05:44.760Z,25.04
2023-05-22T20:08:15.325Z,24.95
2023-05-22T20:10:46.566Z,24.89
2023-05-22T20:13:20.815Z,24.87
2023-05-22T20:15:54.177Z,24.84
2023-05-22T20:18:37.437Z,24.83
2023-05-22T20:21:18.842Z,24.81
2023-05-22T20:24:21.205Z,24.78
2023-05-22T20:27:01.452Z,24.70
2023-05-22T20:29:34.198Z,24.68
2023-05-22T20:32:04.685Z,24.66
2023-05-22T20:34:48.844Z,24.59
2023-05-22T20:37:23.970Z,24.60
2023-05-22T20:39:54.552Z,24.54
2023-05-22T20:42:26.399Z,24.53
2023-05-22T20:44:58.911Z,24.50
2023-05-22T20:47:30.847Z,24.48
2023-05-22T20:50:03.798Z,24.46
2023-05-22T20:52:34.750Z,24.43
2023-05-22T20:55:04.963Z,24.41
2023-05-22T20:57:35.556Z,24.36
2023-05-22T21:00:09.871Z,24.33
2023-05-22T21:02:43.451Z,24.26
2023-05-22T21:05:28.115Z,24.20
2023-05-22T21:07:58.546Z,24.19
2023-05-22T21:10:31.702Z,24.14
2023-05-22T21:13:04.073Z,24.08
2023-05-22T21:15:36.949Z,24.03
2023-05-22T21:18:12.024Z,24.01
2023-05-22T21:20:45.222Z,23.95
2023-05-22T21:23:18.354Z,23.94
2023-05-22T21:25:50.534Z,23.91
2023-05-22T21:28:20.658Z,23.88
2023-05-22T21:31:01.237Z,23.83
2023-05-22T21:33:34.721Z,23.75
2023-05-22T21:36:10.976Z,23.72
2023-05-22T21:38:43.989Z,23.70
2023-05-22T21:41:20.787Z,23.67
2023-05-22T21:43:53.898Z,23.66
2023-05-22T21:46:43.819Z,23.61
2023-05-22T21:49:14.403Z,23.57
2023-05-22T21:51:55.845Z,23.53
2023-05-22T21:54:26.074Z,23.53
2023-05-22T21:56:57.063Z,23.50
2023-05-22T21:59:33.167Z,23.48
2023-05-22T22:02:05.264Z,23.47
2023-05-22T22:04:35.592Z,23.41
2023-05-22T22:07:11.228Z,23.36
2023-05-22T22:09:41.382Z,23.32
2023-05-22T22:12:14.408Z,23.33
2023-05-22T22:14:44.604Z,23.31
2023-05-22T22:17:16.920Z,23.26
2023-05-22T22:19:47.906Z,23.23
2023-05-22T22:22:22.882Z,23.22
2023-05-22T22:24:53.124Z,23.22
2023-05-22T22:27:23.312Z,23.21
2023-05-22T22:29:53.555Z,23.14
2023-05-22T22:32:23.873Z,23.11
2023-05-22T22:34:55.317Z,23.06
2023-05-22T22:37:28.144Z,23.02
2023-05-22T22:39:58.694Z,23.01
2023-05-22T22:42:29.128Z,22.98
2023-05-22T22:44:59.402Z,22.96
2023-05-22T22:47:30.619Z,22.96
2023-05-22T22:50:00.992Z,22.96
2023-05-22T22:52:33.979Z,22.93
2023-05-22T22:55:05.281Z,22.95
2023-05-22T22:57:36.312Z,22.93
2023-05-22T23:00:12.373Z,22.89
2023-05-22T23:02:45.362Z,22.87
2023-05-22T23:05:20.538Z,22.85
2023-05-22T23:07:53.449Z,22.82
2023-05-22T23:10:23.664Z,22.81
2023-05-22T23:12:53.768Z,22.78
2023-05-22T23:15:23.980Z,22.74
2023-05-22T23:17:54.469Z,22.72
2023-05-22T23:20:24.599Z,22.69
2023-05-22T23:22:57.537Z,22.67
2023-05-22T23:25:27.923Z,22.61
2023-05-22T23:27:58.007Z,22.60
2023-05-22T23:30:28.276Z,22.58
2023-05-22T23:32:58.479Z,22.55
2023-05-22T23:35:28.587Z,22.53
2023-05-22T23:38:01.744Z,22.50
2023-05-22T23:40:32.000Z,22.47
2023-05-22T23:43:02.112Z,22.44
2023-05-22T23:45:32.242Z,22.41
2023-05-22T23:48:02.382Z,22.38
2023-05-22T23:50:32.677Z,22.35
2023-05-22T23:53:05.372Z,22.29
2023-05-22T23:55:35.588Z,22.25
2023-05-22T23:58:05.723Z,22.18
